Time;durP1;ratioP1;P1;durP2;ratioP2;P2;SDS_P1;SDS_P2;PMS_P1;PMS_P2;Temp;Humidity;BMP_temperature;BMP_pressure;BME280_temperature;BME280_humidity;BME280_pressure;Samples;Min_cycle;Max_cycle;Signal;HPM_P1;HPM_P2
2022/12/27 00:02:20;;;;;;;11.13;3.15;;;4.90;99.90;;;;;;5032268;28;20095;-68
2022/12/27 00:04:46;;;;;;;10.40;2.83;;;4.80;99.90;;;;;;5033637;28;20029;-68
2022/12/27 00:07:12;;;;;;;7.40;2.78;;;4.80;99.90;;;;;;5033358;28;20025;-68
2022/12/27 00:09:38;;;;;;;7.75;2.85;;;4.80;99.90;;;;;;5032248;28;20029;-68
2022/12/27 00:12:04;;;;;;;6.03;2.83;;;4.70;99.90;;;;;;5031702;28;20029;-67
2022/12/27 00:14:30;;;;;;;7.88;3.38;;;4.70;99.90;;;;;;5033232;28;20025;-67
2022/12/27 00:16:55;;;;;;;10.60;3.50;;;4.50;99.90;;;;;;5033198;28;20030;-67
2022/12/27 00:19:21;;;;;;;8.00;2.97;;;4.50;99.90;;;;;;5033180;28;20045;-67
2022/12/27 00:21:46;;;;;;;4.85;2.63;;;4.40;99.90;;;;;;5032469;28;20033;-67
2022/12/27 00:24:12;;;;;;;9.63;3.03;;;4.40;99.90;;;;;;5031749;28;20075;-68
2022/12/27 00:26:38;;;;;;;9.25;2.80;;;4.40;99.90;;;;;;5032256;28;20021;-67
2022/12/27 00:29:04;;;;;;;9.10;2.20;;;4.30;99.90;;;;;;5033001;28;20061;-67
2022/12/27 00:31:30;;;;;;;7.30;2.47;;;4.30;99.90;;;;;;5032042;28;20057;-67
2022/12/27 00:33:58;;;;;;;7.72;2.45;;;4.40;99.90;;;;;;5031579;28;20105;-67
2022/12/27 00:36:26;;;;;;;9.98;2.47;;;4.30;99.90;;;;;;5031731;28;20072;-68
2022/12/27 00:38:52;;;;;;;4.32;2.25;;;4.50;99.90;;;;;;5033139;28;20030;-67
2022/12/27 00:41:20;;;;;;;6.22;2.15;;;4.50;99.90;;;;;;5031678;28;20084;-67
2022/12/27 00:43:46;;;;;;;8.02;2.35;;;4.60;99.90;;;;;;5032840;28;20052;-67
2022/12/27 00:46:12;;;;;;;7.97;2.30;;;4.80;99.90;;;;;;5032857;28;20025;-67
2022/12/27 00:48:38;;;;;;;7.82;2.47;;;5.00;99.90;;;;;;5031868;28;20022;-67
2022/12/27 00:51:13;;;;;;;9.50;3.38;;;5.10;99.90;;;;;;5031793;28;20068;-67
2022/12/27 00:53:39;;;;;;;3.47;2.05;;;5.20;99.90;;;;;;5031749;28;20116;-67
2022/12/27 00:56:11;;;;;;;9.23;2.95;;;5.20;99.90;;;;;;5033063;28;20104;-67
2022/12/27 00:58:37;;;;;;;7.00;2.97;;;5.30;99.90;;;;;;5031609;28;20021;-67
2022/12/27 01:01:13;;;;;;;10.90;3.00;;;5.10;99.90;;;;;;5031388;28;20029;-67
2022/12/27 01:03:39;;;;;;;9.52;2.58;;;4.90;99.90;;;;;;5032277;28;20029;-67
2022/12/27 01:06:11;;;;;;;4.57;2.55;;;4.90;99.90;;;;;;5031781;28;20025;-67
2022/12/27 01:08:37;;;;;;;4.22;2.20;;;4.80;99.90;;;;;;5031537;28;20120;-68
2022/12/27 01:11:04;;;;;;;7.97;2.25;;;4.80;99.90;;;;;;5031499;28;20029;-68
2022/12/27 01:13:30;;;;;;;7.13;2.33;;;4.80;99.90;;;;;;5031040;28;20456;-67
2022/12/27 01:15:56;;;;;;;5.57;2.47;;;4.80;99.90;;;;;;5031420;28;20029;-67
2022/12/27 01:18:21;;;;;;;8.40;2.45;;;5.00;99.90;;;;;;5031634;28;20021;-67
2022/12/27 01:20:47;;;;;;;8.18;3.35;;;5.10;99.90;;;;;;5032625;28;20024;-67
2022/12/27 01:23:13;;;;;;;7.97;2.03;;;5.20;99.90;;;;;;5031388;28;20060;-67
2022/12/27 01:25:38;;;;;;;8.68;2.35;;;5.30;99.90;;;;;;5031960;28;20033;-67
2022/12/27 01:28:04;;;;;;;4.82;1.90;;;5.30;99.90;;;;;;5031669;28;20120;-67
2022/12/27 01:30:29;;;;;;;5.60;1.45;;;5.40;99.90;;;;;;5031269;28;20032;-67
2022/12/27 01:32:55;;;;;;;6.40;1.63;;;5.40;99.90;;;;;;5035795;28;20116;-67
2022/12/27 01:35:20;;;;;;;6.75;1.77;;;5.40;99.90;;;;;;5035665;28;20091;-67
2022/12/27 01:37:46;;;;;;;6.95;1.60;;;5.30;99.90;;;;;;5034998;28;20031;-67
2022/12/27 01:40:13;;;;;;;9.95;1.70;;;5.30;99.90;;;;;;5034731;28;20021;-67
2022/12/27 01:42:50;;;;;;;6.72;1.67;;;5.30;99.90;;;;;;5034977;28;20060;-67
2022/12/27 01:45:23;;;;;;;5.18;1.35;;;5.20;99.90;;;;;;5035469;28;20056;-67
2022/12/27 01:48:18;;;;;;;6.13;1.40;;;5.10;99.90;;;;;;5035740;28;20083;-67
2022/12/27 01:50:54;;;;;;;6.15;1.50;;;5.20;99.90;;;;;;5034868;28;20025;-67
2022/12/27 01:53:28;;;;;;;8.13;1.88;;;5.10;99.90;;;;;;5034830;28;20026;-67
2022/12/27 01:55:56;;;;;;;7.50;1.80;;;5.10;99.90;;;;;;5034824;28;20121;-67
2022/12/27 01:58:38;;;;;;;6.82;2.17;;;5.20;99.90;;;;;;5034573;28;20568;-67
2022/12/27 02:01:08;;;;;;;8.70;2.35;;;5.00;99.90;;;;;;5036207;28;20022;-67
2022/12/27 02:03:37;;;;;;;2.97;1.73;;;4.90;99.90;;;;;;5035445;28;20030;-68
2022/12/27 02:06:05;;;;;;;4.38;1.90;;;4.90;99.90;;;;;;5034466;28;20025;-67
2022/12/27 02:08:39;;;;;;;5.18;1.55;;;4.90;99.90;;;;;;5035741;28;20049;-67
2022/12/27 02:11:06;;;;;;;4.47;1.63;;;4.90;99.90;;;;;;5034821;28;20021;-67
2022/12/27 02:13:35;;;;;;;9.15;1.70;;;4.90;99.90;;;;;;5034480;28;20033;-67
2022/12/27 02:16:08;;;;;;;4.38;1.80;;;4.90;99.90;;;;;;5034734;28;20032;-67
2022/12/27 02:18:34;;;;;;;7.47;1.50;;;4.90;99.90;;;;;;5034823;28;20025;-67
2022/12/27 02:21:08;;;;;;;6.78;1.63;;;4.90;99.90;;;;;;5036337;28;20029;-67
2022/12/27 02:24:05;;;;;;;2.88;1.30;;;4.90;99.90;;;;;;5035261;28;20044;-67
2022/12/27 02:26:52;;;;;;;6.80;1.75;;;4.80;99.90;;;;;;5034663;28;20120;-67
2022/12/27 02:29:32;;;;;;;3.42;1.50;;;4.80;99.90;;;;;;5035415;28;20033;-67
2022/12/27 02:32:09;;;;;;;6.57;1.88;;;4.80;99.90;;;;;;5033595;28;20025;-67
2022/12/27 02:34:44;;;;;;;10.02;1.30;;;4.80;99.90;;;;;;5034898;28;20104;-67
2022/12/27 02:37:12;;;;;;;5.57;1.38;;;4.80;99.90;;;;;;5033647;28;20057;-67
2022/12/27 02:39:42;;;;;;;5.28;1.30;;;4.80;99.90;;;;;;5033629;28;20025;-67
2022/12/27 02:53:42;;;;;;;6.55;1.83;;;4.70;99.90;;;;;;5034640;28;20060;-67
2022/12/27 02:59:24;;;;;;;9.15;1.77;;;4.70;99.90;;;;;;5034780;28;20105;-67
2022/12/27 03:04:51;;;;;;;7.93;1.63;;;4.70;99.90;;;;;;5034959;28;19911;-67
2022/12/27 03:07:39;;;;;;;7.05;1.30;;;4.60;99.90;;;;;;5033075;28;20029;-67
2022/12/27 03:16:30;;;;;;;3.17;1.10;;;4.80;99.90;;;;;;5024009;28;20033;-67
2022/12/27 03:25:26;;;;;;;2.63;0.90;;;4.80;99.90;;;;;;5034349;28;20026;-67
2022/12/27 03:27:40;;;;;;;14.20;2.45;;;4.90;99.90;;;;;;5034499;28;20099;-67
2022/12/27 03:33:12;;;;;;;4.82;1.45;;;4.90;99.90;;;;;;5033952;28;20510;-67
2022/12/27 03:38:58;;;;;;;6.63;0.77;;;4.90;99.90;;;;;;5034272;28;20036;-67
2022/12/27 03:44:24;;;;;;;6.82;1.10;;;4.70;99.90;;;;;;5033682;28;20020;-67
2022/12/27 03:46:59;;;;;;;3.15;0.85;;;4.70;99.90;;;;;;5033189;28;20025;-67
2022/12/27 03:49:34;;;;;;;6.20;1.10;;;4.80;99.90;;;;;;5033808;28;20014;-67
2022/12/27 03:52:44;;;;;;;5.38;1.23;;;4.80;99.90;;;;;;5033453;28;20085;-67
2022/12/27 03:55:10;;;;;;;3.53;0.98;;;4.80;99.90;;;;;;4991481;28;20126;-67
2022/12/27 03:57:36;;;;;;;2.92;0.88;;;4.80;99.90;;;;;;4975801;28;20022;-67
2022/12/27 04:00:04;;;;;;;3.30;1.13;;;4.80;99.90;;;;;;4976085;28;20134;-67
2022/12/27 04:02:29;;;;;;;3.00;0.82;;;4.90;99.90;;;;;;4975632;28;20027;-68
2022/12/27 04:04:55;;;;;;;5.22;1.02;;;4.90;99.90;;;;;;4975664;28;20041;-68
2022/12/27 04:07:21;;;;;;;4.07;1.00;;;5.00;99.90;;;;;;4991832;28;20046;-67
2022/12/27 04:37:15;;;;;;;10.43;0.90;;;5.10;99.90;;;;;;5033226;28;20065;-67
2022/12/27 04:54:55;;;;;;;4.38;1.15;;;5.20;99.90;;;;;;5031631;28;20167;-68
2022/12/27 04:56:07;;;;;;;5.07;1.25;;;5.50;99.90;;;;;;5032885;28;20032;-67
2022/12/27 04:58:33;;;;;;;4.68;1.00;;;5.50;99.90;;;;;;5032477;28;20022;-67
2022/12/27 05:03:47;;;;;;;3.35;1.05;;;5.50;99.90;;;;;;5053175;28;20116;-68
2022/12/27 05:06:13;;;;;;;5.10;1.65;;;5.60;99.90;;;;;;5052624;28;20032;-67
2022/12/27 05:14:12;;;;;;;2.85;1.30;;;5.30;99.90;;;;;;5057244;28;20214;-67
2022/12/27 05:16:39;;;;;;;7.40;1.48;;;5.30;99.90;;;;;;5055184;28;20095;-67
2022/12/27 05:19:07;;;;;;;5.88;1.73;;;5.30;99.90;;;;;;5055377;28;20029;-67
2022/12/27 05:25:33;;;;;;;7.72;1.85;;;5.30;99.90;;;;;;5054918;28;20111;-67
2022/12/27 05:27:14;;;;;;;3.55;1.60;;;5.30;99.90;;;;;;5056358;28;20055;-68
2022/12/27 05:29:40;;;;;;;4.47;1.33;;;5.40;99.90;;;;;;5055201;28;20043;-68
2022/12/27 05:32:06;;;;;;;5.45;1.80;;;5.40;99.90;;;;;;5056075;28;20396;-68
2022/12/27 05:34:31;;;;;;;8.50;1.40;;;5.40;99.90;;;;;;5056580;28;20028;-68
2022/12/27 05:36:57;;;;;;;5.00;1.20;;;5.50;99.90;;;;;;5056037;28;20025;-68
2022/12/27 05:39:22;;;;;;;5.47;1.13;;;5.60;99.90;;;;;;5055028;28;20024;-68
2022/12/27 05:41:48;;;;;;;3.03;1.60;;;5.60;99.90;;;;;;5054780;28;20107;-68
2022/12/27 05:44:13;;;;;;;2.88;1.13;;;5.70;99.90;;;;;;5056121;28;20021;-68
2022/12/27 05:46:39;;;;;;;5.22;1.08;;;5.60;99.90;;;;;;5056134;28;20029;-68
2022/12/27 05:49:04;;;;;;;4.82;1.65;;;5.50;99.90;;;;;;5055691;28;20021;-68
2022/12/27 05:51:30;;;;;;;8.50;1.23;;;5.60;99.90;;;;;;5054707;28;20025;-68
2022/12/27 05:53:55;;;;;;;3.42;0.88;;;5.60;99.90;;;;;;5055200;28;20028;-68
2022/12/27 05:56:21;;;;;;;3.90;0.90;;;5.60;99.90;;;;;;5055964;28;20035;-68
2022/12/27 05:58:47;;;;;;;2.80;1.08;;;5.60;99.90;;;;;;5054448;28;20026;-68
2022/12/27 06:01:15;;;;;;;1.85;0.75;;;5.50;99.90;;;;;;5054607;28;20017;-68
2022/12/27 06:03:40;;;;;;;4.68;0.88;;;5.60;99.90;;;;;;5054057;28;20025;-68
2022/12/27 06:06:07;;;;;;;3.42;0.90;;;5.60;99.90;;;;;;5054176;28;20021;-68
2022/12/27 06:08:34;;;;;;;3.90;1.23;;;5.70;99.90;;;;;;5054054;28;20025;-68
2022/12/27 06:11:14;;;;;;;2.60;1.10;;;5.70;99.90;;;;;;5054040;28;20029;-68
2022/12/27 06:13:41;;;;;;;6.28;1.42;;;5.70;99.90;;;;;;5053922;28;20033;-68
2022/12/27 06:16:08;;;;;;;1.73;1.40;;;5.70;99.90;;;;;;5054776;28;20025;-68
2022/12/27 06:18:36;;;;;;;7.32;1.00;;;5.70;99.90;;;;;;5054081;28;20021;-68
2022/12/27 06:21:14;;;;;;;3.17;1.25;;;5.80;99.90;;;;;;5055191;28;20078;-68
2022/12/27 06:23:41;;;;;;;7.57;1.00;;;5.80;99.90;;;;;;5055087;28;20065;-68
2022/12/27 06:26:27;;;;;;;5.30;1.70;;;5.70;99.90;;;;;;5055001;28;20091;-68
2022/12/27 06:28:55;;;;;;;5.68;1.08;;;5.80;99.90;;;;;;5053747;28;20079;-68
2022/12/27 06:31:22;;;;;;;2.83;1.05;;;5.80;99.90;;;;;;5053681;28;20021;-68
2022/12/27 06:33:49;;;;;;;4.38;1.27;;;5.80;99.90;;;;;;5053532;28;20116;-68
2022/12/27 06:36:17;;;;;;;9.57;1.08;;;5.80;99.90;;;;;;5053635;28;20025;-68
2022/12/27 06:38:43;;;;;;;3.53;1.27;;;5.80;99.90;;;;;;5054789;28;20060;-67
2022/12/27 06:41:11;;;;;;;6.43;1.25;;;5.70;99.90;;;;;;5055043;28;20108;-67
2022/12/27 06:43:39;;;;;;;7.55;1.30;;;5.60;99.90;;;;;;5053836;28;20021;-67
2022/12/27 06:46:08;;;;;;;4.68;1.20;;;5.70;99.90;;;;;;5054665;28;20028;-67
2022/12/27 06:48:34;;;;;;;4.13;1.30;;;5.70;99.90;;;;;;5054636;28;20029;-67
2022/12/27 06:51:03;;;;;;;3.92;1.13;;;5.70;99.90;;;;;;5054853;28;20029;-68
2022/12/27 06:53:29;;;;;;;5.05;1.05;;;5.70;99.90;;;;;;5054317;28;20029;-68
2022/12/27 06:55:54;;;;;;;3.42;1.30;;;5.70;99.90;;;;;;5054528;28;20079;-67
2022/12/27 06:58:20;;;;;;;3.47;1.17;;;5.70;99.90;;;;;;5053967;28;20021;-67
2022/12/27 07:00:45;;;;;;;3.58;1.40;;;5.70;99.90;;;;;;5054654;28;20029;-67
2022/12/27 07:03:11;;;;;;;6.35;1.75;;;5.60;99.90;;;;;;5054421;28;20036;-67
2022/12/27 07:05:36;;;;;;;5.63;1.48;;;5.50;99.90;;;;;;5053359;28;20021;-67
2022/12/27 07:08:02;;;;;;;5.88;1.40;;;5.50;99.90;;;;;;5054123;28;20036;-67
2022/12/27 07:10:28;;;;;;;4.90;1.55;;;5.50;99.90;;;;;;5052911;28;20032;-67
2022/12/27 07:12:54;;;;;;;3.58;1.50;;;5.40;99.90;;;;;;5052768;28;20029;-67
2022/12/27 07:15:20;;;;;;;4.45;1.92;;;5.40;99.90;;;;;;5052820;28;20021;-67
2022/12/27 07:17:45;;;;;;;1.25;0.70;;;5.50;99.90;;;;;;5053615;28;20032;-67
2022/12/27 07:20:11;;;;;;;3.63;0.98;;;5.40;99.90;;;;;;5052719;28;20025;-67
2022/12/27 07:22:36;;;;;;;5.25;1.20;;;5.40;99.90;;;;;;5052595;28;20048;-67
2022/12/27 07:25:02;;;;;;;3.20;1.17;;;5.50;99.90;;;;;;5052692;28;20029;-67
2022/12/27 07:27:28;;;;;;;4.25;1.30;;;5.50;99.90;;;;;;5052844;28;20025;-67
2022/12/27 07:29:53;;;;;;;5.45;1.90;;;5.40;99.90;;;;;;5052650;28;20036;-67
2022/12/27 07:32:19;;;;;;;1.35;0.85;;;5.30;99.90;;;;;;5052724;28;20021;-67
2022/12/27 07:34:44;;;;;;;5.35;1.10;;;5.20;99.90;;;;;;5052797;28;20021;-67
2022/12/27 07:37:10;;;;;;;14.13;2.03;;;5.10;99.90;;;;;;5053693;28;20028;-67
2022/12/27 07:39:35;;;;;;;6.25;1.27;;;5.10;99.90;;;;;;5053665;28;20027;-67
2022/12/27 07:42:01;;;;;;;5.00;1.00;;;5.10;99.90;;;;;;5052299;28;20025;-67
2022/12/27 07:44:26;;;;;;;3.20;1.20;;;5.20;99.90;;;;;;5053529;28;20056;-67
2022/12/27 07:46:52;;;;;;;3.85;1.48;;;5.30;99.90;;;;;;5052175;28;20028;-68
2022/12/27 07:49:17;;;;;;;5.03;1.15;;;5.30;99.90;;;;;;5053490;28;20388;-68
2022/12/27 07:51:43;;;;;;;9.18;1.63;;;5.20;99.90;;;;;;5053441;28;20029;-68
2022/12/27 07:54:08;;;;;;;5.22;1.38;;;5.20;99.90;;;;;;5053445;28;20441;-68
2022/12/27 07:56:34;;;;;;;3.95;1.88;;;5.30;99.90;;;;;;5052849;28;20036;-68
2022/12/27 07:59:00;;;;;;;3.22;1.20;;;5.30;99.90;;;;;;5051991;28;20025;-68
2022/12/27 08:01:28;;;;;;;7.20;1.50;;;5.30;99.90;;;;;;5052456;28;20081;-68
2022/12/27 08:03:58;;;;;;;7.85;1.63;;;5.40;99.90;;;;;;5053266;28;20025;-68
2022/12/27 08:06:29;;;;;;;4.78;1.15;;;5.40;99.90;;;;;;5052203;28;20025;-68
2022/12/27 08:08:57;;;;;;;7.43;1.63;;;5.40;99.90;;;;;;5053532;28;20021;-68
2022/12/27 08:11:25;;;;;;;4.25;1.20;;;5.50;99.90;;;;;;5051996;28;20111;-68
2022/12/27 08:13:51;;;;;;;4.47;1.30;;;5.50;99.90;;;;;;5053678;28;20102;-68
2022/12/27 08:16:23;;;;;;;6.25;2.30;;;5.60;99.90;;;;;;5051857;28;20132;-68
2022/12/27 08:18:48;;;;;;;;;;;5.50;99.90;;;;;;5052209;28;20029;-68
2022/12/27 08:21:14;;;;;;;6.32;0.98;;;5.50;99.90;;;;;;5052506;28;20284;-68
2022/12/27 08:23:40;;;;;;;3.70;1.10;;;5.60;99.90;;;;;;5051715;28;20032;-68
2022/12/27 08:26:07;;;;;;;8.10;1.92;;;5.60;99.90;;;;;;5052561;28;20025;-68
2022/12/27 08:28:33;;;;;;;9.20;1.55;;;5.70;99.90;;;;;;5052899;28;20037;-68
2022/12/27 08:30:59;;;;;;;5.75;1.20;;;5.70;99.90;;;;;;5051742;28;20075;-68
2022/12/27 08:33:25;;;;;;;4.85;1.58;;;5.80;99.90;;;;;;5052828;28;20048;-68
2022/12/27 08:35:51;;;;;;;2.25;1.23;;;5.80;99.90;;;;;;5051801;28;20020;-68
2022/12/27 08:38:16;;;;;;;4.85;1.70;;;5.90;99.90;;;;;;5052948;28;20032;-68
2022/12/27 08:40:43;;;;;;;8.55;1.55;;;6.00;99.90;;;;;;5052059;28;20043;-68
2022/12/27 08:43:10;;;;;;;7.35;1.27;;;6.10;99.90;;;;;;5054897;28;20029;-68
2022/12/27 08:45:36;;;;;;;4.15;1.25;;;6.20;99.90;;;;;;5056512;28;20032;-68
2022/12/27 08:48:03;;;;;;;11.38;2.38;;;6.30;99.90;;;;;;5057364;28;20032;-68
2022/12/27 08:50:29;;;;;;;4.30;1.83;;;6.30;99.90;;;;;;5057018;28;20388;-68
2022/12/27 08:52:59;;;;;;;3.70;1.52;;;6.40;99.90;;;;;;5055854;28;20025;-68
2022/12/27 08:55:26;;;;;;;13.27;1.40;;;6.30;99.90;;;;;;5055665;28;20498;-68
2022/12/27 08:58:00;;;;;;;5.57;1.48;;;6.40;99.90;;;;;;5055840;28;20025;-68
2022/12/27 09:00:27;;;;;;;3.50;1.45;;;6.30;99.90;;;;;;5057080;28;20116;-68
2022/12/27 09:02:53;;;;;;;6.53;1.42;;;6.30;99.90;;;;;;5055228;28;20029;-68
2022/12/27 09:05:19;;;;;;;6.32;1.50;;;6.40;99.90;;;;;;5055490;28;20025;-68
2022/12/27 09:07:45;;;;;;;3.58;1.50;;;6.30;99.90;;;;;;5056961;28;20487;-68
2022/12/27 09:10:11;;;;;;;5.28;1.83;;;6.20;99.90;;;;;;5055168;28;20032;-68
2022/12/27 09:12:37;;;;;;;6.65;1.70;;;6.30;99.90;;;;;;5055184;28;20032;-67
2022/12/27 09:15:03;;;;;;;5.50;1.55;;;6.30;99.90;;;;;;5056867;28;20025;-68
2022/12/27 09:17:28;;;;;;;4.57;1.90;;;6.20;99.90;;;;;;5055289;28;20044;-68
2022/12/27 09:19:54;;;;;;;4.65;1.00;;;6.20;99.90;;;;;;5055096;28;20104;-68
2022/12/27 09:22:19;;;;;;;7.32;1.95;;;6.20;99.90;;;;;;5055069;28;20029;-68
2022/12/27 09:24:45;;;;;;;7.60;1.25;;;6.30;99.90;;;;;;5056889;28;20029;-68
2022/12/27 09:27:11;;;;;;;4.07;1.13;;;6.30;99.90;;;;;;5055069;28;20025;-68
2022/12/27 09:29:36;;;;;;;7.63;2.55;;;6.40;99.90;;;;;;5055441;28;20025;-68
2022/12/27 09:32:02;;;;;;;7.05;1.48;;;6.50;99.90;;;;;;5054776;28;20032;-67
2022/12/27 09:34:27;;;;;;;4.47;1.35;;;6.40;99.90;;;;;;5055084;28;20021;-68
2022/12/27 09:36:53;;;;;;;3.53;1.60;;;6.50;99.90;;;;;;5054863;28;20025;-67
2022/12/27 09:39:18;;;;;;;13.88;1.92;;;6.40;99.90;;;;;;5055236;28;20017;-67
2022/12/27 09:41:57;;;;;;;4.13;1.67;;;6.40;99.90;;;;;;5055041;28;20027;-67
2022/12/27 09:44:40;;;;;;;2.80;1.27;;;6.40;99.90;;;;;;5055006;28;20025;-67
2022/12/27 09:47:11;;;;;;;4.05;1.33;;;6.50;99.90;;;;;;5056199;28;20024;-68
2022/12/27 09:49:43;;;;;;;8.40;1.60;;;6.60;99.90;;;;;;5055304;28;20092;-68
2022/12/27 09:52:17;;;;;;;5.20;1.42;;;6.60;99.90;;;;;;5055907;28;20082;-68
2022/12/27 09:54:43;;;;;;;6.43;1.60;;;6.70;99.90;;;;;;5056024;28;20067;-68
2022/12/27 09:57:39;;;;;;;6.20;1.80;;;6.80;99.90;;;;;;5054532;28;20021;-68
2022/12/27 10:00:16;;;;;;;3.65;1.35;;;7.00;99.90;;;;;;5054577;28;20048;-69
2022/12/27 10:02:43;;;;;;;3.92;1.50;;;7.20;99.90;;;;;;5055544;28;20032;-69
2022/12/27 10:05:17;;;;;;;4.95;1.33;;;7.20;99.90;;;;;;5054423;28;20120;-69
2022/12/27 10:07:55;;;;;;;7.05;1.55;;;7.20;99.90;;;;;;5055740;28;20029;-69
2022/12/27 10:10:47;;;;;;;5.60;1.35;;;7.10;99.90;;;;;;5056328;28;20028;-70
2022/12/27 10:13:51;;;;;;;12.73;1.90;;;7.20;99.90;;;;;;5038471;28;20045;-70
2022/12/27 10:16:55;;;;;;;5.93;1.33;;;7.40;99.90;;;;;;5053994;28;20044;-69
2022/12/27 10:19:37;;;;;;;6.57;1.60;;;7.50;99.90;;;;;;5016798;28;20079;-69
2022/12/27 10:22:18;;;;;;;3.45;1.58;;;7.60;99.90;;;;;;5016991;28;20076;-69
2022/12/27 10:24:49;;;;;;;3.13;1.33;;;7.60;99.90;;;;;;5016959;28;20033;-69
2022/12/27 10:27:19;;;;;;;5.38;1.45;;;7.60;99.90;;;;;;5016791;28;20075;-69
2022/12/27 10:29:46;;;;;;;9.70;1.70;;;7.40;99.90;;;;;;5016657;28;20121;-69
2022/12/27 10:32:14;;;;;;;8.07;1.42;;;7.40;99.90;;;;;;5016573;28;20060;-69
2022/12/27 10:34:40;;;;;;;6.30;1.40;;;7.60;99.90;;;;;;5016207;28;20028;-69
2022/12/27 10:37:07;;;;;;;3.45;1.30;;;7.60;99.90;;;;;;5016578;28;20045;-68
2022/12/27 10:39:37;;;;;;;5.57;1.38;;;7.60;99.90;;;;;;5016486;28;20071;-69
2022/12/27 10:42:36;;;;;;;7.18;2.08;;;7.60;99.90;;;;;;5032922;28;20037;-69
2022/12/27 10:45:23;;;;;;;5.43;1.50;;;7.50;99.90;;;;;;5032711;28;20036;-69
2022/12/27 10:47:48;;;;;;;5.57;1.45;;;7.50;99.90;;;;;;5016276;28;20025;-68
2022/12/27 10:50:14;;;;;;;3.42;1.15;;;7.70;99.90;;;;;;5035736;28;20040;-68
2022/12/27 10:52:40;;;;;;;4.35;1.42;;;7.90;99.90;;;;;;5053120;28;20560;-69
2022/12/27 10:55:31;;;;;;;7.28;1.85;;;8.00;99.90;;;;;;5053190;28;20112;-69
2022/12/27 10:57:57;;;;;;;7.63;1.45;;;8.10;99.90;;;;;;5053195;28;20088;-69
2022/12/27 11:00:23;;;;;;;7.97;1.40;;;8.10;99.90;;;;;;5054660;28;20060;-68
2022/12/27 11:02:56;;;;;;;5.18;1.27;;;8.20;99.90;;;;;;5054399;28;20021;-69
2022/12/27 11:05:24;;;;;;;4.57;2.08;;;8.20;99.90;;;;;;5053866;28;20116;-68
2022/12/27 11:07:51;;;;;;;4.15;1.40;;;8.20;99.90;;;;;;5054567;28;20029;-68
2022/12/27 11:10:19;;;;;;;7.45;1.67;;;8.30;99.90;;;;;;5054221;28;20021;-68
2022/12/27 11:13:02;;;;;;;6.53;1.77;;;8.50;99.90;;;;;;5052731;28;20040;-68
2022/12/27 11:15:31;;;;;;;5.15;1.60;;;8.70;99.90;;;;;;5047001;22;20065;-67
2022/12/27 11:18:00;;;;;;;4.20;1.27;;;8.80;99.90;;;;;;5014785;28;20053;-68
2022/12/27 11:20:37;;;;;;;5.43;1.35;;;9.00;99.90;;;;;;5014482;28;20030;-68
2022/12/27 11:23:10;;;;;;;3.42;1.65;;;9.00;99.90;;;;;;5014422;28;20084;-68
2022/12/27 11:25:54;;;;;;;5.07;1.25;;;8.90;99.90;;;;;;5014384;28;20038;-68
2022/12/27 11:28:42;;;;;;;5.60;1.35;;;8.90;99.90;;;;;;5013152;28;20032;-68
2022/12/27 11:31:12;;;;;;;5.47;1.58;;;9.10;99.90;;;;;;5014590;28;20061;-68
2022/12/27 11:33:46;;;;;;;5.28;1.42;;;9.10;99.90;;;;;;5012813;28;20033;-68
2022/12/27 11:36:14;;;;;;;4.50;1.40;;;9.20;99.90;;;;;;5012947;28;20113;-68
2022/12/27 11:38:43;;;;;;;5.03;1.85;;;9.50;99.90;;;;;;5013162;28;20018;-68
2022/12/27 11:41:19;;;;;;;6.50;1.80;;;9.50;99.90;;;;;;5014649;28;20040;-68
2022/12/27 11:44:22;;;;;;;4.35;1.92;;;9.50;99.90;;;;;;5013484;28;20030;-68
2022/12/27 11:47:19;;;;;;;4.25;1.02;;;9.60;99.90;;;;;;4989294;28;20029;-68
2022/12/27 11:50:24;;;;;;;8.70;1.65;;;9.70;99.90;;;;;;5014284;28;20034;-68
2022/12/27 11:53:21;;;;;;;6.75;1.58;;;9.70;99.90;;;;;;4937185;29;20038;-68
2022/12/27 11:56:08;;;;;;;5.60;1.10;;;9.70;99.90;;;;;;4920614;29;20126;-67
2022/12/27 11:58:36;;;;;;;4.03;1.92;;;9.70;99.90;;;;;;4953305;29;20110;-67
2022/12/27 12:01:45;;;;;;;6.95;1.33;;;9.60;99.90;;;;;;4953679;29;20086;-68
2022/12/27 12:04:42;;;;;;;3.75;1.35;;;9.50;99.90;;;;;;4953796;29;20391;-68
2022/12/27 12:07:20;;;;;;;4.55;1.67;;;9.40;99.90;;;;;;4932521;29;20067;-67
2022/12/27 12:10:10;;;;;;;4.28;1.52;;;9.60;99.90;;;;;;4937826;29;20114;-68
2022/12/27 12:13:00;;;;;;;8.15;1.67;;;9.80;99.90;;;;;;4953255;29;20042;-67
2022/12/27 12:15:41;;;;;;;7.57;1.92;;;9.90;99.90;;;;;;4953013;28;20062;-68
2022/12/27 12:18:33;;;;;;;7.97;1.98;;;10.00;99.90;;;;;;4937282;29;20082;-68
2022/12/27 12:21:27;;;;;;;5.95;1.70;;;10.00;99.90;;;;;;4937829;29;20090;-68
2022/12/27 12:24:05;;;;;;;4.85;1.70;;;9.80;99.90;;;;;;4936983;29;20065;-68
2022/12/27 12:27:01;;;;;;;10.20;1.75;;;9.80;99.90;;;;;;4977520;28;20041;-68
2022/12/27 12:29:57;;;;;;;4.22;1.33;;;9.90;99.90;;;;;;5013063;28;20121;-68
2022/12/27 12:32:35;;;;;;;10.98;1.67;;;9.90;99.90;;;;;;5013599;28;20472;-67
2022/12/27 12:35:03;;;;;;;4.63;1.40;;;10.10;99.90;;;;;;5012687;28;20041;-67
2022/12/27 12:37:55;;;;;;;2.35;1.23;;;10.20;99.90;;;;;;5012022;28;20022;-67
2022/12/27 12:40:45;;;;;;;7.05;1.52;;;10.10;99.90;;;;;;5012348;28;20018;-67
2022/12/27 12:43:35;;;;;;;4.07;0.95;;;10.30;99.90;;;;;;5013457;28;20029;-67
2022/12/27 12:46:04;;;;;;;8.07;1.15;;;10.50;99.90;;;;;;5011838;28;20034;-68
2022/12/27 12:49:08;;;;;;;3.30;1.35;;;10.60;99.90;;;;;;5013143;28;20038;-67
2022/12/27 12:51:56;;;;;;;5.20;1.27;;;10.70;99.90;;;;;;5013203;28;20076;-67
2022/12/27 12:54:45;;;;;;;5.55;0.90;;;10.80;99.90;;;;;;5013041;28;20030;-68
2022/12/27 12:57:20;;;;;;;8.38;1.45;;;10.90;99.90;;;;;;5012058;28;20024;-67
2022/12/27 12:59:57;;;;;;;3.42;1.33;;;10.90;99.90;;;;;;5013492;28;20015;-68
2022/12/27 13:02:23;;;;;;;3.20;1.15;;;10.60;99.90;;;;;;5012364;28;20030;-70
2022/12/27 13:04:57;;;;;;;2.80;1.25;;;10.30;99.90;;;;;;5013094;28;20076;-68
2022/12/27 13:07:52;;;;;;;7.18;1.90;;;10.00;99.90;;;;;;5011771;28;20018;-67
2022/12/27 13:10:29;;;;;;;6.72;1.52;;;9.90;99.90;;;;;;4998044;28;20105;-67
2022/12/27 13:13:02;;;;;;;4.38;1.25;;;9.70;99.90;;;;;;5012719;28;20080;-67
2022/12/27 13:15:52;;;;;;;5.82;1.50;;;9.60;99.90;;;;;;5011864;28;20432;-67
2022/12/27 13:18:27;;;;;;;4.63;0.95;;;9.50;99.90;;;;;;5011574;28;20034;-67
2022/12/27 13:21:15;;;;;;;1.90;0.77;;;9.30;99.90;;;;;;5011626;28;20026;-67
2022/12/27 13:24:04;;;;;;;5.20;1.80;;;9.20;99.90;;;;;;5012070;28;20076;-67
2022/12/27 13:26:59;;;;;;;9.90;3.35;;;9.10;99.90;;;;;;5011603;28;20022;-67
2022/12/27 13:29:36;;;;;;;8.85;2.00;;;9.20;99.90;;;;;;5014968;28;20517;-67
2022/12/27 13:32:25;;;;;;;10.05;3.90;;;9.30;99.90;;;;;;5015170;28;20492;-67
2022/12/27 13:35:00;;;;;;;7.30;2.80;;;9.40;99.90;;;;;;5015954;28;20034;-67
2022/12/27 13:37:38;;;;;;;3.72;1.25;;;9.40;99.90;;;;;;5015065;28;20014;-67
2022/12/27 13:40:31;;;;;;;8.57;1.60;;;9.50;99.90;;;;;;5016623;28;20112;-67
2022/12/27 13:43:17;;;;;;;7.40;1.77;;;9.60;99.90;;;;;;5016504;28;20029;-67
2022/12/27 13:46:23;;;;;;;8.00;1.23;;;9.50;99.90;;;;;;5014851;28;20060;-67
2022/12/27 13:49:10;;;;;;;7.40;1.55;;;9.30;99.90;;;;;;5016150;28;20032;-67
2022/12/27 13:51:42;;;;;;;9.52;1.15;;;9.10;99.90;;;;;;5015208;28;20018;-67
2022/12/27 13:54:32;;;;;;;7.05;1.27;;;9.20;99.90;;;;;;5014822;28;20030;-67
2022/12/27 13:57:35;;;;;;;8.93;1.60;;;9.20;99.90;;;;;;5014791;28;20022;-67
2022/12/27 14:00:33;;;;;;;5.32;1.27;;;9.10;99.90;;;;;;5014619;28;20025;-68
2022/12/27 14:03:19;;;;;;;6.25;1.65;;;9.00;99.90;;;;;;4955452;29;20050;-67
2022/12/27 14:06:13;;;;;;;5.68;1.38;;;9.10;99.90;;;;;;4939891;29;20058;-67
2022/12/27 14:09:27;;;;;;;4.22;1.13;;;9.10;99.90;;;;;;4955735;29;20049;-67
2022/12/27 14:12:14;;;;;;;4.63;1.02;;;9.20;99.90;;;;;;4923265;29;20038;-67
2022/12/27 14:14:41;;;;;;;6.70;1.15;;;9.30;99.90;;;;;;4939519;29;20051;-67
2022/12/27 14:17:36;;;;;;;4.32;1.40;;;9.40;99.90;;;;;;4939227;29;20024;-67
2022/12/27 14:20:29;;;;;;;8.68;1.40;;;9.40;99.90;;;;;;4945359;29;20039;-67
2022/12/27 14:23:13;;;;;;;6.38;1.33;;;9.40;99.90;;;;;;4955220;29;20042;-67
2022/12/27 14:26:03;;;;;;;8.55;1.52;;;9.40;99.90;;;;;;4955143;29;20495;-67
2022/12/27 14:28:34;;;;;;;2.40;1.70;;;9.40;99.90;;;;;;4955075;29;20502;-68
2022/12/27 14:31:33;;;;;;;3.33;1.30;;;9.30;99.90;;;;;;4939039;29;20582;-68
2022/12/27 14:34:42;;;;;;;6.47;1.15;;;9.20;99.90;;;;;;4939277;29;20038;-68
2022/12/27 14:37:22;;;;;;;4.38;1.33;;;9.10;99.90;;;;;;4882266;29;20033;-68
2022/12/27 14:40:04;;;;;;;8.95;1.05;;;9.10;99.90;;;;;;4928764;28;20030;-68
2022/12/27 14:42:33;;;;;;;6.18;1.75;;;8.90;99.90;;;;;;4974106;28;20030;-67
2022/12/27 14:45:16;;;;;;;4.32;1.13;;;8.90;99.90;;;;;;4974028;28;20035;-68
2022/12/27 14:47:45;;;;;;;5.40;1.27;;;8.80;99.90;;;;;;4974184;28;20042;-68
2022/12/27 14:50:41;;;;;;;2.53;1.23;;;8.90;99.90;;;;;;4974084;28;20039;-68
2022/12/27 14:53:09;;;;;;;6.35;2.13;;;8.80;99.90;;;;;;4957872;28;20034;-67
2022/12/27 14:55:53;;;;;;;3.80;1.48;;;8.80;99.90;;;;;;4973932;28;20027;-67
2022/12/27 14:58:39;;;;;;;4.43;1.30;;;8.80;99.90;;;;;;4957656;28;20117;-67
2022/12/27 15:01:09;;;;;;;5.97;2.00;;;8.70;99.90;;;;;;4957725;28;20609;-67